createdAt,value
2019-02-27T00:01:43.050Z,10.63
2019-02-27T00:04:40.857Z,10.55
2019-02-27T00:07:35.914Z,11.50
2019-02-27T00:10:30.875Z,14.98
2019-02-27T00:13:25.613Z,16.37
2019-02-27T00:16:21.647Z,15.78
2019-02-27T00:19:16.767Z,16.50
2019-02-27T00:22:11.670Z,18.27
2019-02-27T00:25:07.730Z,17.20
2019-02-27T00:28:03.538Z,17.00
2019-02-27T00:30:59.145Z,18.02
2019-02-27T00:33:56.908Z,19.12
2019-02-27T00:36:50.055Z,18.50
2019-02-27T00:39:45.182Z,18.70
2019-02-27T00:42:41.072Z,17.15
2019-02-27T00:45:39.883Z,18.10
2019-02-27T00:48:31.986Z,17.90
2019-02-27T00:51:27.729Z,17.25
2019-02-27T00:54:22.753Z,16.20
2019-02-27T00:57:20.459Z,15.00
2019-02-27T01:00:15.498Z,15.50
2019-02-27T01:03:11.189Z,18.10
2019-02-27T01:06:06.150Z,17.55
2019-02-27T01:09:01.090Z,73.07
2019-02-27T01:11:57.638Z,28.92
2019-02-27T01:14:52.825Z,21.57
2019-02-27T01:17:48.359Z,17.05
2019-02-27T01:20:46.455Z,17.90
2019-02-27T01:23:41.638Z,18.52
2019-02-27T01:26:35.077Z,17.17
2019-02-27T01:29:30.478Z,18.92
2019-02-27T01:32:25.721Z,17.52
2019-02-27T01:35:22.437Z,20.08
2019-02-27T01:38:17.570Z,18.00
2019-02-27T01:41:14.322Z,16.82
2019-02-27T01:44:11.176Z,19.50
2019-02-27T01:47:04.995Z,25.77
2019-02-27T01:49:59.930Z,21.82
2019-02-27T01:52:55.306Z,14.95
2019-02-27T01:55:50.388Z,15.45
2019-02-27T01:58:45.622Z,14.85
2019-02-27T02:01:40.566Z,15.08
2019-02-27T02:04:35.529Z,14.10
2019-02-27T02:07:30.905Z,14.47
2019-02-27T02:10:28.304Z,15.70
2019-02-27T02:13:29.747Z,16.07
2019-02-27T02:17:05.007Z,14.50
2019-02-27T02:20:42.294Z,15.13
2019-02-27T02:23:55.462Z,16.48
2019-02-27T02:27:23.358Z,17.35
2019-02-27T02:30:55.803Z,18.87
2019-02-27T02:34:12.716Z,17.80
2019-02-27T02:37:47.120Z,18.73
2019-02-27T02:41:09.410Z,17.98
2019-02-27T02:44:35.178Z,19.17
2019-02-27T02:47:59.368Z,19.73
2019-02-27T02:51:29.102Z,21.52
2019-02-27T02:55:11.969Z,26.20
2019-02-27T02:58:36.700Z,19.00
2019-02-27T03:01:57.817Z,16.70
2019-02-27T03:05:16.949Z,17.45
2019-02-27T03:08:39.328Z,17.92
2019-02-27T03:12:02.072Z,17.12
2019-02-27T03:15:21.332Z,18.62
2019-02-27T03:18:42.171Z,18.95
2019-02-27T03:22:12.121Z,18.42
2019-02-27T03:25:48.800Z,17.85
2019-02-27T03:29:16.899Z,17.20
2019-02-27T03:32:35.712Z,18.27
2019-02-27T03:36:09.362Z,17.57
2019-02-27T03:40:01.737Z,16.45
2019-02-27T03:43:34.863Z,15.80
2019-02-27T03:47:16.841Z,16.67
2019-02-27T03:50:37.057Z,15.10
2019-02-27T03:54:01.905Z,14.50
2019-02-27T03:57:16.058Z,13.30
2019-02-27T04:00:33.576Z,13.30
2019-02-27T04:04:11.236Z,12.78
2019-02-27T04:07:31.831Z,12.00
2019-02-27T04:10:30.897Z,11.60
2019-02-27T04:13:26.814Z,11.10
2019-02-27T04:16:16.847Z,14.50
2019-02-27T04:19:12.417Z,12.95
2019-02-27T04:22:07.904Z,14.68
2019-02-27T04:25:03.334Z,11.80
2019-02-27T04:27:58.404Z,9.08
2019-02-27T04:30:54.404Z,10.50
2019-02-27T04:33:49.271Z,9.13
2019-02-27T04:36:47.154Z,10.50
2019-02-27T04:39:41.552Z,10.82
2019-02-27T04:42:37.316Z,9.93
2019-02-27T04:45:32.937Z,10.63
2019-02-27T04:48:30.004Z,8.75
2019-02-27T04:51:25.192Z,9.83
2019-02-27T04:54:21.051Z,11.08
2019-02-27T04:57:16.569Z,11.55
2019-02-27T05:00:12.633Z,10.45
2019-02-27T05:03:11.991Z,10.35
2019-02-27T05:06:25.137Z,11.50
2019-02-27T05:09:26.994Z,10.60
2019-02-27T05:12:42.375Z,10.63
2019-02-27T05:16:05.796Z,10.30
2019-02-27T05:19:20.338Z,10.32
2019-02-27T05:22:26.356Z,28.50
2019-02-27T05:25:18.939Z,18.20
2019-02-27T05:28:21.564Z,18.87
2019-02-27T05:31:53.125Z,17.23
2019-02-27T05:35:15.007Z,12.33
2019-02-27T05:38:23.317Z,10.08
2019-02-27T05:41:45.245Z,10.82
2019-02-27T05:45:07.510Z,8.33
2019-02-27T05:48:12.142Z,11.63
2019-02-27T05:51:34.253Z,10.88
2019-02-27T05:54:42.538Z,12.43
2019-02-27T05:57:51.560Z,12.13
2019-02-27T06:01:22.639Z,16.17
2019-02-27T06:04:24.927Z,10.72
2019-02-27T06:07:30.693Z,10.43
2019-02-27T06:10:33.705Z,12.45
2019-02-27T06:13:37.599Z,15.60
2019-02-27T06:17:14.910Z,8.68
2019-02-27T06:20:07.870Z,9.73
2019-02-27T06:23:11.589Z,9.05
2019-02-27T06:26:27.255Z,9.03
2019-02-27T06:29:47.876Z,9.05
2019-02-27T06:32:47.789Z,9.05
2019-02-27T06:35:49.326Z,9.88
2019-02-27T06:38:44.880Z,10.53
2019-02-27T06:41:41.543Z,9.63
2019-02-27T06:44:41.816Z,9.63
2019-02-27T06:47:43.650Z,9.70
2019-02-27T06:50:40.264Z,9.85
2019-02-27T06:53:39.127Z,8.75
2019-02-27T06:56:35.178Z,9.35
2019-02-27T06:59:31.902Z,9.85
2019-02-27T07:02:28.705Z,8.63
2019-02-27T07:05:25.060Z,8.43
2019-02-27T07:08:20.664Z,8.60
2019-02-27T07:11:20.850Z,8.43
2019-02-27T07:14:18.785Z,8.63
2019-02-27T07:17:16.255Z,8.18
2019-02-27T07:20:14.793Z,9.30
2019-02-27T07:23:10.848Z,8.80
2019-02-27T07:26:09.278Z,9.53
2019-02-27T07:29:08.158Z,9.13
2019-02-27T07:32:12.210Z,9.45
2019-02-27T07:35:10.003Z,9.73
2019-02-27T07:38:06.427Z,8.68
2019-02-27T07:41:02.572Z,7.70
2019-02-27T07:43:59.553Z,8.75
2019-02-27T07:47:02.179Z,9.90
2019-02-27T07:49:58.883Z,9.23
2019-02-27T07:52:59.748Z,11.28
2019-02-27T07:56:02.569Z,10.15
2019-02-27T07:58:58.813Z,7.80
2019-02-27T08:01:54.058Z,8.45
2019-02-27T08:04:51.650Z,8.58
2019-02-27T08:07:48.669Z,9.70
2019-02-27T08:10:41.143Z,7.55
2019-02-27T08:13:38.424Z,7.97
2019-02-27T08:16:36.796Z,7.47
2019-02-27T08:19:31.000Z,8.25
2019-02-27T08:22:26.595Z,7.80
2019-02-27T08:25:29.708Z,8.20
2019-02-27T08:28:41.637Z,8.25
2019-02-27T08:31:38.419Z,8.55
2019-02-27T08:34:36.426Z,9.53
2019-02-27T08:37:35.038Z,9.68
2019-02-27T08:40:31.794Z,9.68
2019-02-27T08:43:27.700Z,10.10
2019-02-27T08:46:30.072Z,9.90
2019-02-27T08:49:32.972Z,10.75
2019-02-27T08:52:30.480Z,8.25
2019-02-27T08:55:39.012Z,8.03
2019-02-27T08:58:32.888Z,8.13
2019-02-27T09:01:28.771Z,9.05
2019-02-27T09:04:28.768Z,7.53
2019-02-27T09:07:25.314Z,7.40
2019-02-27T09:10:30.449Z,7.83
2019-02-27T09:13:46.098Z,22.13
2019-02-27T09:16:49.425Z,7.40
2019-02-27T09:20:09.203Z,7.90
2019-02-27T09:23:05.472Z,7.75
2019-02-27T09:26:02.707Z,7.42
2019-02-27T09:29:04.599Z,7.92
2019-02-27T09:32:00.675Z,8.83
2019-02-27T09:34:57.017Z,8.85
2019-02-27T09:37:52.039Z,7.30
2019-02-27T09:40:48.334Z,8.20
2019-02-27T09:43:44.591Z,7.92
2019-02-27T09:46:41.878Z,7.17
2019-02-27T09:49:50.474Z,8.30
2019-02-27T09:52:49.622Z,8.50
2019-02-27T09:55:53.442Z,6.62
2019-02-27T09:59:04.801Z,7.62
2019-02-27T10:02:32.091Z,7.10
2019-02-27T10:05:40.986Z,8.08
2019-02-27T10:09:08.898Z,8.38
2019-02-27T10:12:07.680Z,8.23
2019-02-27T10:15:03.686Z,9.43
2019-02-27T10:17:59.083Z,7.75
2019-02-27T10:20:59.315Z,7.92
2019-02-27T10:23:56.056Z,7.92
2019-02-27T10:26:53.525Z,8.35
2019-02-27T10:29:48.524Z,11.60
2019-02-27T10:32:44.092Z,7.35
2019-02-27T10:35:41.004Z,8.48
2019-02-27T10:38:40.306Z,7.92
2019-02-27T10:41:39.828Z,8.03
2019-02-27T10:44:38.214Z,10.15
2019-02-27T10:47:39.954Z,7.62
2019-02-27T10:50:37.704Z,7.45
2019-02-27T10:53:35.572Z,7.80
2019-02-27T10:56:32.182Z,8.33
2019-02-27T10:59:28.107Z,6.90
2019-02-27T11:02:30.846Z,8.03
2019-02-27T11:05:34.690Z,8.98
2019-02-27T11:08:30.204Z,9.13
2019-02-27T11:11:35.198Z,9.30
2019-02-27T11:14:32.770Z,9.68
2019-02-27T11:17:30.374Z,12.55
2019-02-27T11:20:37.815Z,8.33
2019-02-27T11:23:41.115Z,8.20
2019-02-27T11:26:38.205Z,8.83
2019-02-27T11:29:36.100Z,8.70
2019-02-27T11:33:00.345Z,8.50
2019-02-27T11:39:11.850Z,8.13
2019-02-27T11:42:22.112Z,10.50
2019-02-27T11:45:57.817Z,10.08
2019-02-27T11:49:42.894Z,8.85
2019-02-27T11:52:28.867Z,8.23
2019-02-27T11:55:35.504Z,8.83
2019-02-27T11:58:32.491Z,8.85
2019-02-27T12:01:28.473Z,9.83
2019-02-27T12:04:28.461Z,9.65
2019-02-27T12:07:26.857Z,9.53
2019-02-27T12:10:24.760Z,9.50
2019-02-27T12:13:20.760Z,10.05
2019-02-27T12:16:18.349Z,10.38
2019-02-27T12:19:16.249Z,11.33
2019-02-27T12:22:13.305Z,10.60
2019-02-27T12:25:10.761Z,11.70
2019-02-27T12:28:07.998Z,12.28
2019-02-27T12:31:03.259Z,12.45
2019-02-27T12:34:02.528Z,12.55
2019-02-27T12:36:56.845Z,11.78
2019-02-27T12:39:53.736Z,13.48
2019-02-27T12:42:50.708Z,14.83
2019-02-27T12:45:47.662Z,17.90
2019-02-27T12:48:46.155Z,15.88
2019-02-27T12:51:41.090Z,14.05
2019-02-27T12:54:37.152Z,18.87
2019-02-27T12:57:32.607Z,13.58
2019-02-27T13:00:34.616Z,13.83
2019-02-27T13:03:31.841Z,15.03
2019-02-27T13:06:34.397Z,14.15
2019-02-27T13:09:28.986Z,16.37
2019-02-27T13:12:26.959Z,14.50
2019-02-27T13:15:23.553Z,13.78
2019-02-27T13:18:20.275Z,13.22
2019-02-27T13:21:20.336Z,17.27
2019-02-27T13:24:25.210Z,13.80
2019-02-27T13:27:20.755Z,14.95
2019-02-27T13:30:22.486Z,14.83
2019-02-27T13:33:18.077Z,16.40
2019-02-27T13:36:13.918Z,17.82
2019-02-27T13:39:10.599Z,20.57
2019-02-27T13:42:06.334Z,17.00
2019-02-27T13:45:03.867Z,18.70
2019-02-27T13:48:04.861Z,19.07
2019-02-27T13:50:56.594Z,18.17
2019-02-27T13:53:51.803Z,19.52
2019-02-27T13:56:48.890Z,17.42
2019-02-27T13:59:44.922Z,17.98
2019-02-27T14:02:41.308Z,18.52
2019-02-27T14:05:36.855Z,18.17
2019-02-27T14:08:33.026Z,20.52
2019-02-27T14:11:28.757Z,19.48
2019-02-27T14:14:27.261Z,19.48
2019-02-27T14:17:22.459Z,18.80
2019-02-27T14:20:20.119Z,19.35
2019-02-27T14:23:15.689Z,19.75
2019-02-27T14:26:10.937Z,19.42
2019-02-27T14:29:07.269Z,20.12
2019-02-27T14:32:06.847Z,20.80
2019-02-27T14:35:02.412Z,19.10
2019-02-27T14:38:01.304Z,19.48
2019-02-27T14:40:56.612Z,20.00
2019-02-27T14:43:52.281Z,19.15
2019-02-27T14:46:47.974Z,17.17
2019-02-27T14:49:43.716Z,20.35
2019-02-27T14:52:39.386Z,34.10
2019-02-27T14:55:37.273Z,21.77
2019-02-27T14:58:31.175Z,23.73
2019-02-27T15:01:29.006Z,21.70
2019-02-27T15:04:26.222Z,27.90
2019-02-27T15:07:22.778Z,24.32
2019-02-27T15:10:19.233Z,26.00
2019-02-27T15:13:15.226Z,26.60
2019-02-27T15:16:15.347Z,25.37
2019-02-27T15:19:12.758Z,26.40
2019-02-27T15:22:08.505Z,23.70
2019-02-27T15:25:07.822Z,22.37
2019-02-27T15:28:01.355Z,19.85
2019-02-27T15:30:56.654Z,19.48
2019-02-27T15:33:53.862Z,23.20
2019-02-27T15:36:48.001Z,23.83
2019-02-27T15:39:43.489Z,25.75
2019-02-27T15:42:40.037Z,25.50
2019-02-27T15:45:35.393Z,26.20
2019-02-27T15:48:31.576Z,24.40
2019-02-27T15:51:28.396Z,25.17
2019-02-27T15:54:24.635Z,24.20
2019-02-27T15:57:19.422Z,23.90
2019-02-27T16:00:18.557Z,23.52
2019-02-27T16:03:14.208Z,23.52
2019-02-27T16:06:09.602Z,24.67
2019-02-27T16:09:05.106Z,25.17
2019-02-27T16:12:01.722Z,27.10
2019-02-27T16:14:58.160Z,27.90
2019-02-27T16:17:53.629Z,27.62
2019-02-27T16:20:49.880Z,27.27
2019-02-27T16:23:46.113Z,27.48
2019-02-27T16:26:42.000Z,27.17
2019-02-27T16:29:37.947Z,28.42
2019-02-27T16:32:34.339Z,27.82
2019-02-27T16:35:30.628Z,28.73
2019-02-27T16:38:28.416Z,29.12
2019-02-27T16:41:27.910Z,28.35
2019-02-27T16:44:22.074Z,30.12
2019-02-27T16:47:19.911Z,28.50
2019-02-27T16:50:15.213Z,29.27
2019-02-27T16:53:15.728Z,30.48
2019-02-27T16:56:08.249Z,36.48
2019-02-27T16:59:07.684Z,33.98
2019-02-27T17:02:03.644Z,35.70
2019-02-27T17:04:56.664Z,34.58
2019-02-27T17:07:52.414Z,35.00
2019-02-27T17:10:51.715Z,42.50
2019-02-27T17:13:46.927Z,40.95
2019-02-27T17:16:44.912Z,36.03
2019-02-27T17:19:40.316Z,33.28
2019-02-27T17:22:37.009Z,30.40
2019-02-27T17:25:33.041Z,28.98
2019-02-27T17:28:28.653Z,29.18
2019-02-27T17:31:24.128Z,23.83
2019-02-27T17:34:19.459Z,23.47
2019-02-27T17:37:15.421Z,20.90
2019-02-27T17:40:11.136Z,20.27
2019-02-27T17:43:06.805Z,19.30
2019-02-27T17:46:05.582Z,20.52
2019-02-27T17:49:01.382Z,20.65
2019-02-27T17:51:57.030Z,19.42
2019-02-27T17:54:52.840Z,21.55
2019-02-27T17:57:48.322Z,22.60
2019-02-27T18:00:50.022Z,23.30
2019-02-27T18:03:41.903Z,24.52
2019-02-27T18:06:37.981Z,24.37
2019-02-27T18:09:32.924Z,25.08
2019-02-27T18:12:28.543Z,25.17
2019-02-27T18:15:24.567Z,24.35
2019-02-27T18:18:20.234Z,22.90
2019-02-27T18:21:16.024Z,21.33
2019-02-27T18:24:11.413Z,20.17
2019-02-27T18:27:07.379Z,19.82
2019-02-27T18:30:03.284Z,19.37
2019-02-27T18:33:01.083Z,18.35
2019-02-27T18:35:55.380Z,17.27
2019-02-27T18:38:51.461Z,17.50
2019-02-27T18:41:47.168Z,17.85
2019-02-27T18:44:42.816Z,17.62
2019-02-27T18:47:39.080Z,16.52
2019-02-27T18:50:34.747Z,16.67
2019-02-27T18:53:32.173Z,15.32
2019-02-27T18:56:26.854Z,15.95
2019-02-27T18:59:22.444Z,15.93
2019-02-27T19:02:20.590Z,15.08
2019-02-27T19:05:14.191Z,14.68
2019-02-27T19:08:10.127Z,14.98
2019-02-27T19:11:05.837Z,13.83
2019-02-27T19:14:02.455Z,14.10
2019-02-27T19:16:56.656Z,13.32
2019-02-27T19:19:52.550Z,12.88
2019-02-27T19:22:48.605Z,13.25
2019-02-27T19:25:44.922Z,12.98
2019-02-27T19:28:40.855Z,13.15
2019-02-27T19:31:36.955Z,12.80
2019-02-27T19:34:32.822Z,12.43
2019-02-27T19:37:28.764Z,13.10
2019-02-27T19:40:29.908Z,12.73
2019-02-27T19:43:21.173Z,12.58
2019-02-27T19:46:17.289Z,12.28
2019-02-27T19:49:12.106Z,13.28
2019-02-27T19:52:07.820Z,12.58
2019-02-27T19:55:03.294Z,12.28
2019-02-27T19:57:58.783Z,12.90
2019-02-27T20:00:54.350Z,12.40
2019-02-27T20:03:49.494Z,11.50
2019-02-27T20:06:44.895Z,11.80
2019-02-27T20:09:40.334Z,11.78
2019-02-27T20:12:36.242Z,11.75
2019-02-27T20:15:31.629Z,11.88
2019-02-27T20:18:26.977Z,11.93
2019-02-27T20:21:23.500Z,13.45
2019-02-27T20:24:19.315Z,13.70
2019-02-27T20:27:14.611Z,14.68
2019-02-27T20:30:14.112Z,13.95
2019-02-27T20:33:08.911Z,12.93
2019-02-27T20:36:05.158Z,14.05
2019-02-27T20:39:03.252Z,14.47
2019-02-27T20:41:57.515Z,13.85
2019-02-27T20:44:52.764Z,13.50
2019-02-27T20:47:48.149Z,14.75
2019-02-27T20:50:45.666Z,15.00
2019-02-27T20:53:42.296Z,15.78
2019-02-27T20:56:37.446Z,17.05
2019-02-27T20:59:32.758Z,16.87
2019-02-27T21:02:28.297Z,15.20
2019-02-27T21:05:23.323Z,15.50
2019-02-27T21:08:24.109Z,13.98
2019-02-27T21:11:19.341Z,14.20
2019-02-27T21:14:20.499Z,13.85
2019-02-27T21:17:20.353Z,14.55
2019-02-27T21:20:13.209Z,14.07
2019-02-27T21:23:09.308Z,13.48
2019-02-27T21:26:04.971Z,13.60
2019-02-27T21:29:00.529Z,14.60
2019-02-27T21:31:58.267Z,13.95
2019-02-27T21:34:55.016Z,13.62
2019-02-27T21:37:48.136Z,14.63
2019-02-27T21:40:43.796Z,14.68
2019-02-27T21:43:39.981Z,15.58
2019-02-27T21:46:34.610Z,15.32
2019-02-27T21:49:35.506Z,15.58
2019-02-27T21:52:41.159Z,17.12
2019-02-27T21:55:37.055Z,16.30
2019-02-27T21:58:33.012Z,16.02
2019-02-27T22:01:28.874Z,15.80
2019-02-27T22:04:24.528Z,15.75
2019-02-27T22:07:20.115Z,15.35
2019-02-27T22:10:19.738Z,14.30
2019-02-27T22:13:13.556Z,13.70
2019-02-27T22:16:10.636Z,13.45
2019-02-27T22:19:05.978Z,13.10
2019-02-27T22:22:01.800Z,17.57
2019-02-27T22:24:57.348Z,14.45
2019-02-27T22:27:52.780Z,12.75
2019-02-27T22:30:48.092Z,14.95
2019-02-27T22:33:43.663Z,13.53
2019-02-27T22:36:38.803Z,13.75
2019-02-27T22:39:34.466Z,12.55
2019-02-27T22:42:29.981Z,12.98
2019-02-27T22:45:25.558Z,12.35
2019-02-27T22:48:21.948Z,12.33
2019-02-27T22:51:28.422Z,12.13
2019-02-27T22:54:23.866Z,12.68
2019-02-27T22:57:19.266Z,11.55
2019-02-27T23:00:30.707Z,11.70
2019-02-27T23:03:27.558Z,11.60
2019-02-27T23:06:23.116Z,11.03
2019-02-27T23:09:19.807Z,10.72
2019-02-27T23:12:15.444Z,12.03
2019-02-27T23:15:11.461Z,12.05
2019-02-27T23:18:07.392Z,11.50
2019-02-27T23:21:03.862Z,11.30
2019-02-27T23:23:59.550Z,11.30
2019-02-27T23:26:55.667Z,11.73
2019-02-27T23:29:51.412Z,11.83
2019-02-27T23:32:47.119Z,12.90
2019-02-27T23:35:42.158Z,12.20
2019-02-27T23:38:38.240Z,11.38
2019-02-27T23:41:34.242Z,12.37
2019-02-27T23:44:29.891Z,16.40
2019-02-27T23:47:25.309Z,13.28
2019-02-27T23:50:20.752Z,13.32
2019-02-27T23:53:15.941Z,13.28
2019-02-27T23:56:11.736Z,12.75
2019-02-27T23:59:07.088Z,13.10
